createdAt,value
2022-11-27T00:01:32.616Z,83.80
2022-11-27T00:03:59.928Z,83.70
2022-11-27T00:06:28.849Z,83.60
2022-11-27T00:08:58.464Z,83.60
2022-11-27T00:11:27.761Z,83.60
2022-11-27T00:13:55.141Z,83.50
2022-11-27T00:16:24.754Z,83.50
2022-11-27T00:18:51.890Z,84.20
2022-11-27T00:21:31.934Z,83.40
2022-11-27T00:24:01.888Z,83.40
2022-11-27T00:26:35.910Z,83.50
2022-11-27T00:29:05.651Z,83.40
2022-11-27T00:31:34.739Z,83.40
2022-11-27T00:34:05.206Z,83.30
2022-11-27T00:36:34.717Z,83.30
2022-11-27T00:39:01.868Z,83.30
2022-11-27T00:41:30.640Z,83.30
2022-11-27T00:43:58.488Z,83.30
2022-11-27T00:46:29.630Z,83.30
2022-11-27T00:48:58.875Z,83.30
2022-11-27T00:51:27.152Z,83.30
2022-11-27T00:53:55.158Z,83.30
2022-11-27T00:56:33.793Z,83.30
2022-11-27T00:59:01.234Z,83.30
2022-11-27T01:01:33.280Z,83.30
2022-11-27T01:04:02.139Z,83.30
2022-11-27T01:06:30.618Z,83.20
2022-11-27T01:08:58.902Z,83.30
2022-11-27T01:11:30.489Z,83.30
2022-11-27T01:14:02.184Z,83.30
2022-11-27T01:16:31.405Z,83.30
2022-11-27T01:19:00.969Z,83.40
2022-11-27T01:21:32.341Z,83.50
2022-11-27T01:24:01.060Z,83.50
2022-11-27T01:26:28.549Z,83.60
2022-11-27T01:28:57.426Z,83.60
2022-11-27T01:31:32.388Z,83.60
2022-11-27T01:34:06.606Z,83.60
2022-11-27T01:36:35.493Z,83.70
2022-11-27T01:39:03.614Z,83.70
2022-11-27T01:41:35.071Z,83.70
2022-11-27T01:44:25.565Z,83.70
2022-11-27T01:46:57.159Z,83.70
2022-11-27T01:49:39.751Z,83.70
2022-11-27T01:52:20.065Z,83.60
2022-11-27T01:55:19.086Z,83.60
2022-11-27T01:57:59.032Z,83.60
2022-11-27T02:00:26.682Z,83.60
2022-11-27T02:02:53.767Z,83.50
2022-11-27T02:05:28.564Z,83.50
2022-11-27T02:07:59.787Z,83.40
2022-11-27T02:10:52.483Z,83.40
2022-11-27T02:13:46.252Z,83.30
2022-11-27T02:16:37.669Z,83.30
2022-11-27T02:19:56.681Z,83.10
2022-11-27T02:23:01.296Z,83.10
2022-11-27T02:26:18.494Z,82.90
2022-11-27T02:29:01.453Z,82.80
2022-11-27T02:31:52.251Z,82.70
2022-11-27T02:34:45.960Z,82.60
2022-11-27T02:37:32.859Z,82.60
2022-11-27T02:40:05.896Z,82.50
2022-11-27T02:42:40.087Z,82.50
2022-11-27T02:45:13.247Z,82.70
2022-11-27T02:47:44.188Z,82.80
2022-11-27T02:50:17.038Z,83.00
2022-11-27T02:52:46.049Z,83.20
2022-11-27T02:55:19.049Z,83.40
2022-11-27T02:57:46.659Z,83.70
2022-11-27T03:00:14.710Z,84.00
2022-11-27T03:02:50.966Z,84.20
2022-11-27T03:05:22.000Z,84.60
2022-11-27T03:08:02.406Z,84.60
2022-11-27T03:10:54.793Z,84.70
2022-11-27T03:13:22.057Z,84.80
2022-11-27T03:16:06.516Z,84.70
2022-11-27T03:18:57.579Z,84.90
2022-11-27T03:21:39.133Z,84.80
2022-11-27T03:24:08.577Z,84.70
2022-11-27T03:26:37.263Z,84.60
2022-11-27T03:29:09.990Z,84.60
2022-11-27T03:31:38.222Z,84.70
2022-11-27T03:34:05.767Z,84.70
2022-11-27T03:36:33.018Z,84.90
2022-11-27T03:39:00.066Z,84.70
2022-11-27T03:41:47.004Z,84.70
2022-11-27T03:44:29.745Z,84.60
2022-11-27T03:47:18.232Z,84.70
2022-11-27T03:49:53.017Z,84.50
2022-11-27T03:52:37.219Z,84.50
2022-11-27T03:55:31.351Z,84.40
2022-11-27T03:58:07.548Z,84.50
2022-11-27T04:00:40.817Z,84.40
2022-11-27T04:03:12.197Z,84.50
2022-11-27T04:05:40.187Z,84.10
2022-11-27T04:08:07.025Z,84.40
2022-11-27T04:10:34.088Z,83.90
2022-11-27T04:13:01.128Z,84.00
2022-11-27T04:15:28.053Z,84.00
2022-11-27T04:17:55.182Z,83.90
2022-11-27T04:20:22.194Z,83.90
2022-11-27T04:22:49.539Z,84.00
2022-11-27T04:25:17.607Z,83.70
2022-11-27T04:27:44.643Z,83.50
2022-11-27T04:30:12.764Z,83.30
2022-11-27T04:32:40.024Z,83.20
2022-11-27T04:35:07.452Z,83.10
2022-11-27T04:37:35.131Z,82.90
2022-11-27T04:40:02.157Z,82.70
2022-11-27T04:42:29.230Z,82.60
2022-11-27T04:44:56.144Z,82.50
2022-11-27T04:47:23.154Z,82.40
2022-11-27T04:49:50.347Z,82.30
2022-11-27T04:52:17.283Z,82.30
2022-11-27T04:54:44.700Z,82.30
2022-11-27T04:57:12.052Z,82.30
2022-11-27T04:59:39.002Z,82.30
2022-11-27T05:02:06.461Z,82.20
2022-11-27T05:04:33.421Z,82.10
2022-11-27T05:07:00.695Z,82.10
2022-11-27T05:09:27.679Z,82.00
2022-11-27T05:11:54.759Z,81.90
2022-11-27T05:14:24.916Z,81.90
2022-11-27T05:16:54.465Z,81.90
2022-11-27T05:19:23.705Z,81.80
2022-11-27T05:21:51.103Z,81.60
2022-11-27T05:24:21.295Z,81.60
2022-11-27T05:26:48.560Z,81.50
2022-11-27T05:29:15.955Z,81.40
2022-11-27T05:31:43.882Z,81.50
2022-11-27T05:34:11.348Z,81.40
2022-11-27T05:36:38.398Z,81.50
2022-11-27T05:39:07.421Z,81.60
2022-11-27T05:41:36.183Z,81.70
2022-11-27T05:44:04.431Z,81.70
2022-11-27T05:46:31.773Z,81.80
2022-11-27T05:48:59.755Z,81.90
2022-11-27T05:51:26.759Z,82.00
2022-11-27T05:53:53.946Z,82.10
2022-11-27T05:56:20.958Z,82.20
2022-11-27T05:58:48.871Z,82.30
2022-11-27T06:01:19.130Z,82.30
2022-11-27T06:03:46.361Z,82.40
2022-11-27T06:06:16.662Z,82.50
2022-11-27T06:08:44.825Z,82.60
2022-11-27T06:11:17.347Z,82.60
2022-11-27T06:13:46.187Z,82.70
2022-11-27T06:16:23.137Z,82.70
2022-11-27T06:18:55.312Z,82.80
2022-11-27T06:21:24.335Z,82.90
2022-11-27T06:23:55.683Z,82.90
2022-11-27T06:26:26.963Z,83.00
2022-11-27T06:28:55.863Z,83.00
2022-11-27T06:31:29.978Z,83.80
2022-11-27T06:33:58.636Z,83.10
2022-11-27T06:36:30.389Z,83.20
2022-11-27T06:38:57.342Z,83.20
2022-11-27T06:41:27.343Z,83.40
2022-11-27T06:43:55.474Z,83.40
2022-11-27T06:46:24.070Z,83.30
2022-11-27T06:48:53.283Z,83.50
2022-11-27T06:51:26.404Z,84.20
2022-11-27T06:53:54.163Z,83.60
2022-11-27T06:56:27.456Z,83.70
2022-11-27T06:58:57.748Z,83.80
2022-11-27T07:01:27.215Z,83.80
2022-11-27T07:03:54.106Z,84.00
2022-11-27T07:06:23.954Z,84.00
2022-11-27T07:08:51.670Z,84.20
2022-11-27T07:11:25.151Z,84.30
2022-11-27T07:13:57.282Z,84.40
2022-11-27T07:16:25.092Z,84.50
2022-11-27T07:18:59.571Z,84.50
2022-11-27T07:21:27.844Z,84.70
2022-11-27T07:23:56.658Z,84.80
2022-11-27T07:26:30.157Z,85.00
2022-11-27T07:28:57.308Z,85.10
2022-11-27T07:31:30.496Z,85.10
2022-11-27T07:33:58.118Z,85.10
2022-11-27T07:36:29.167Z,85.20
2022-11-27T07:38:57.891Z,85.20
2022-11-27T07:41:29.195Z,85.30
2022-11-27T07:43:59.424Z,85.30
2022-11-27T07:46:26.808Z,85.30
2022-11-27T07:48:53.742Z,85.30
2022-11-27T07:51:22.484Z,85.20
2022-11-27T07:53:52.050Z,85.20
2022-11-27T07:56:19.594Z,85.40
2022-11-27T07:58:46.935Z,85.60
2022-11-27T08:01:18.374Z,86.20
2022-11-27T08:03:46.148Z,86.70
2022-11-27T08:06:21.515Z,87.00
2022-11-27T08:08:50.662Z,87.00
2022-11-27T08:11:25.499Z,87.00
2022-11-27T08:13:58.655Z,86.60
2022-11-27T08:16:26.595Z,86.30
2022-11-27T08:18:54.373Z,86.00
2022-11-27T08:21:22.096Z,85.30
2022-11-27T08:23:49.383Z,84.70
2022-11-27T08:26:16.936Z,84.10
2022-11-27T08:28:44.318Z,83.50
2022-11-27T08:31:13.484Z,83.00
2022-11-27T08:33:41.419Z,82.70
2022-11-27T08:36:13.712Z,82.00
2022-11-27T08:38:44.857Z,81.50
2022-11-27T08:41:11.988Z,81.30
2022-11-27T08:43:39.023Z,80.60
2022-11-27T08:46:07.199Z,79.40
2022-11-27T08:48:34.761Z,78.30
2022-11-27T08:51:08.050Z,77.80
2022-11-27T08:53:37.707Z,76.40
2022-11-27T08:56:26.121Z,75.70
2022-11-27T08:58:53.354Z,72.80
2022-11-27T09:01:31.944Z,73.20
2022-11-27T09:03:59.731Z,71.00
2022-11-27T09:06:30.422Z,70.20
2022-11-27T09:08:59.636Z,70.10
2022-11-27T09:11:28.371Z,68.80
2022-11-27T09:13:55.301Z,67.70
2022-11-27T09:16:23.162Z,67.10
2022-11-27T09:18:52.657Z,66.50
2022-11-27T09:21:23.176Z,65.70
2022-11-27T09:23:55.021Z,64.30
2022-11-27T09:26:24.080Z,62.30
2022-11-27T09:28:51.674Z,62.50
2022-11-27T09:31:19.495Z,62.30
2022-11-27T09:33:46.657Z,60.10
2022-11-27T09:36:21.796Z,59.80
2022-11-27T09:38:49.861Z,59.10
2022-11-27T09:41:44.322Z,59.00
2022-11-27T09:44:43.645Z,57.30
2022-11-27T09:47:41.599Z,56.10
2022-11-27T09:50:27.955Z,57.50
2022-11-27T09:53:31.818Z,55.90
2022-11-27T09:56:03.796Z,55.30
2022-11-27T09:58:41.779Z,55.10
2022-11-27T10:01:14.727Z,54.10
2022-11-27T10:03:43.743Z,53.00
2022-11-27T10:06:54.332Z,52.30
2022-11-27T10:09:39.706Z,51.10
2022-11-27T10:12:25.188Z,52.00
2022-11-27T10:15:04.339Z,51.20
2022-11-27T10:17:45.460Z,51.00
2022-11-27T10:20:20.808Z,49.60
2022-11-27T10:23:12.178Z,49.60
2022-11-27T10:25:46.463Z,48.60
2022-11-27T10:29:00.358Z,48.70
2022-11-27T10:31:37.561Z,48.10
2022-11-27T10:34:21.037Z,48.60
2022-11-27T10:36:50.969Z,48.00
2022-11-27T10:39:31.106Z,47.60
2022-11-27T10:42:08.893Z,46.80
2022-11-27T10:44:46.285Z,45.60
2022-11-27T10:47:14.121Z,45.60
2022-11-27T10:49:44.322Z,45.20
2022-11-27T10:52:19.240Z,44.20
2022-11-27T10:54:54.661Z,43.00
2022-11-27T10:57:57.383Z,43.30
2022-11-27T11:00:25.697Z,43.00
2022-11-27T11:03:05.559Z,43.30
2022-11-27T11:08:21.767Z,42.20
2022-11-27T11:11:05.534Z,41.00
2022-11-27T11:13:39.958Z,40.50
2022-11-27T11:16:24.755Z,40.50
2022-11-27T11:18:55.569Z,40.80
2022-11-27T11:21:31.932Z,40.70
2022-11-27T11:24:01.931Z,40.20
2022-11-27T11:26:33.277Z,39.90
2022-11-27T11:29:06.250Z,40.10
2022-11-27T11:31:40.712Z,38.70
2022-11-27T11:34:21.531Z,37.70
2022-11-27T11:37:05.047Z,37.70
2022-11-27T11:39:45.958Z,37.00
2022-11-27T11:42:23.358Z,36.90
2022-11-27T11:44:53.890Z,37.50
2022-11-27T11:47:25.073Z,38.40
2022-11-27T11:49:54.538Z,39.00
2022-11-27T11:52:59.853Z,39.60
2022-11-27T11:55:36.002Z,39.90
2022-11-27T11:58:31.241Z,40.80
2022-11-27T12:01:40.203Z,40.80
2022-11-27T12:04:35.631Z,41.20
2022-11-27T12:07:41.249Z,41.90
2022-11-27T12:10:26.206Z,41.30
2022-11-27T12:13:33.423Z,41.00
2022-11-27T12:16:23.125Z,40.70
2022-11-27T12:19:31.979Z,39.80
2022-11-27T12:22:21.216Z,40.10
2022-11-27T12:25:28.898Z,40.40
2022-11-27T12:28:21.139Z,38.90
2022-11-27T12:31:15.566Z,39.30
2022-11-27T12:34:00.781Z,38.80
2022-11-27T12:36:57.065Z,38.30
2022-11-27T12:39:34.140Z,38.10
2022-11-27T12:42:25.606Z,38.70
2022-11-27T12:45:05.322Z,39.10
2022-11-27T12:47:48.148Z,39.80
2022-11-27T12:50:41.687Z,40.50
2022-11-27T12:53:30.849Z,41.20
2022-11-27T12:56:20.544Z,41.90
2022-11-27T12:59:11.069Z,42.40
2022-11-27T13:01:52.566Z,43.10
2022-11-27T13:04:48.370Z,43.70
2022-11-27T13:07:55.934Z,44.30
2022-11-27T13:10:33.504Z,44.90
2022-11-27T13:13:23.518Z,45.60
2022-11-27T13:16:05.579Z,46.20
2022-11-27T13:19:01.663Z,46.80
2022-11-27T13:21:32.829Z,46.80
2022-11-27T13:24:04.000Z,47.10
2022-11-27T13:26:50.049Z,47.40
2022-11-27T13:29:32.229Z,47.50
2022-11-27T13:32:04.335Z,47.70
2022-11-27T13:34:34.337Z,47.80
2022-11-27T13:37:07.283Z,47.60
2022-11-27T13:39:38.307Z,47.30
2022-11-27T13:42:22.919Z,47.30
2022-11-27T13:45:11.070Z,47.10
2022-11-27T13:47:43.706Z,47.20
2022-11-27T13:50:14.978Z,47.40
2022-11-27T13:53:04.670Z,47.80
2022-11-27T13:55:37.933Z,48.20
2022-11-27T13:58:07.228Z,48.60
2022-11-27T14:00:42.636Z,49.10
2022-11-27T14:03:25.095Z,49.60
2022-11-27T14:05:53.009Z,50.10
2022-11-27T14:08:32.870Z,50.40
2022-11-27T14:11:06.716Z,50.90
2022-11-27T14:13:39.497Z,51.40
2022-11-27T14:16:33.656Z,51.90
2022-11-27T14:19:04.380Z,52.80
2022-11-27T14:21:40.999Z,52.80
2022-11-27T14:24:29.765Z,53.40
2022-11-27T14:26:57.050Z,54.30
2022-11-27T14:29:28.796Z,54.30
2022-11-27T14:32:01.414Z,54.70
2022-11-27T14:34:33.635Z,55.20
2022-11-27T14:37:01.799Z,55.80
2022-11-27T14:39:37.297Z,55.90
2022-11-27T14:42:08.169Z,56.60
2022-11-27T14:44:35.610Z,56.80
2022-11-27T14:47:06.842Z,57.10
2022-11-27T14:49:35.260Z,57.60
2022-11-27T14:52:07.779Z,57.90
2022-11-27T14:54:38.104Z,58.30
2022-11-27T14:57:06.589Z,58.60
2022-11-27T14:59:33.909Z,58.90
2022-11-27T15:02:17.288Z,59.30
2022-11-27T15:04:46.836Z,60.10
2022-11-27T15:07:26.057Z,60.00
2022-11-27T15:09:56.806Z,60.80
2022-11-27T15:12:33.871Z,60.90
2022-11-27T15:15:22.146Z,61.30
2022-11-27T15:17:58.563Z,62.30
2022-11-27T15:20:38.938Z,62.30
2022-11-27T15:23:30.840Z,62.50
2022-11-27T15:26:03.981Z,62.40
2022-11-27T15:28:42.036Z,63.00
2022-11-27T15:31:34.444Z,63.40
2022-11-27T15:34:16.707Z,64.70
2022-11-27T15:36:48.441Z,64.90
2022-11-27T15:39:27.208Z,64.80
2022-11-27T15:42:03.643Z,65.50
2022-11-27T15:44:32.985Z,65.80
2022-11-27T15:47:02.207Z,66.00
2022-11-27T15:49:30.106Z,66.40
2022-11-27T15:51:57.912Z,66.50
2022-11-27T15:54:25.692Z,66.90
2022-11-27T15:56:52.734Z,67.20
2022-11-27T15:59:20.958Z,67.60
2022-11-27T16:01:49.599Z,67.90
2022-11-27T16:04:17.325Z,68.20
2022-11-27T16:06:45.356Z,68.50
2022-11-27T16:09:12.628Z,68.90
2022-11-27T16:11:40.395Z,69.10
2022-11-27T16:14:07.686Z,69.50
2022-11-27T16:16:35.407Z,69.70
2022-11-27T16:19:04.821Z,70.00
2022-11-27T16:21:33.047Z,70.40
2022-11-27T16:24:03.740Z,70.50
2022-11-27T16:26:31.422Z,70.90
2022-11-27T16:28:58.815Z,71.30
2022-11-27T16:31:26.745Z,71.50
2022-11-27T16:33:54.448Z,71.70
2022-11-27T16:36:24.466Z,72.20
2022-11-27T16:38:55.796Z,72.40
2022-11-27T16:41:25.217Z,72.80
2022-11-27T16:43:56.426Z,73.00
2022-11-27T16:46:30.115Z,73.20
2022-11-27T16:48:59.615Z,73.50
2022-11-27T16:51:32.099Z,73.80
2022-11-27T16:54:04.124Z,73.90
2022-11-27T16:56:33.620Z,74.10
2022-11-27T16:59:12.920Z,74.30
2022-11-27T17:01:41.908Z,74.60
2022-11-27T17:04:15.489Z,74.60
2022-11-27T17:06:42.751Z,74.70
2022-11-27T17:09:09.854Z,74.80
2022-11-27T17:11:42.778Z,75.00
2022-11-27T17:14:10.847Z,75.10
2022-11-27T17:16:41.331Z,75.20
2022-11-27T17:19:15.146Z,75.30
2022-11-27T17:21:43.446Z,75.60
2022-11-27T17:24:15.444Z,75.60
2022-11-27T17:26:45.504Z,76.00
2022-11-27T17:29:16.242Z,76.00
2022-11-27T17:31:44.136Z,75.90
2022-11-27T17:34:14.884Z,76.10
2022-11-27T17:36:43.971Z,76.30
2022-11-27T17:39:13.460Z,76.50
2022-11-27T17:41:42.145Z,76.70
2022-11-27T17:44:09.224Z,76.70
2022-11-27T17:46:37.165Z,76.90
2022-11-27T17:49:07.809Z,77.10
2022-11-27T17:51:36.796Z,77.00
2022-11-27T17:54:05.653Z,77.10
2022-11-27T17:56:34.885Z,77.20
2022-11-27T17:59:03.023Z,77.30
2022-11-27T18:01:33.590Z,77.50
2022-11-27T18:04:04.039Z,77.60
2022-11-27T18:06:32.692Z,77.70
2022-11-27T18:09:00.160Z,77.90
2022-11-27T18:11:30.733Z,77.90
2022-11-27T18:14:01.839Z,78.00
2022-11-27T18:16:34.306Z,78.00
2022-11-27T18:19:09.615Z,78.30
2022-11-27T18:21:38.084Z,78.40
2022-11-27T18:24:23.535Z,78.60
2022-11-27T18:27:07.799Z,78.60
2022-11-27T18:29:42.242Z,78.80
2022-11-27T18:32:10.825Z,78.90
2022-11-27T18:34:38.174Z,78.90
2022-11-27T18:37:06.703Z,79.00
2022-11-27T18:39:35.573Z,79.10
2022-11-27T18:42:04.853Z,79.30
2022-11-27T18:44:32.827Z,79.30
2022-11-27T18:47:00.594Z,79.50
2022-11-27T18:49:28.435Z,79.50
2022-11-27T18:51:56.411Z,79.50
2022-11-27T18:54:24.235Z,79.60
2022-11-27T18:56:51.294Z,79.60
2022-11-27T18:59:18.972Z,79.40
2022-11-27T19:01:46.194Z,79.60
2022-11-27T19:04:13.368Z,79.50
2022-11-27T19:06:42.381Z,79.40
2022-11-27T19:09:11.399Z,79.40
2022-11-27T19:11:39.624Z,79.70
2022-11-27T19:14:09.571Z,79.30
2022-11-27T19:16:46.345Z,79.30
2022-11-27T19:22:07.842Z,79.30
2022-11-27T19:24:35.091Z,79.20
2022-11-27T19:27:03.132Z,79.10
2022-11-27T19:29:30.404Z,79.20
2022-11-27T19:31:58.870Z,79.10
2022-11-27T19:34:26.532Z,79.20
2022-11-27T19:36:53.540Z,79.20
2022-11-27T19:39:20.586Z,79.40
2022-11-27T19:41:49.063Z,79.50
2022-11-27T19:44:17.591Z,79.60
2022-11-27T19:46:46.312Z,79.70
2022-11-27T19:49:18.428Z,79.80
2022-11-27T19:51:46.771Z,80.10
2022-11-27T19:54:15.849Z,80.20
2022-11-27T19:56:43.481Z,80.40
2022-11-27T19:59:12.498Z,80.60
2022-11-27T20:01:41.854Z,80.80
2022-11-27T20:04:11.513Z,81.00
2022-11-27T20:06:38.987Z,81.20
2022-11-27T20:09:07.116Z,81.40
2022-11-27T20:11:37.802Z,81.50
2022-11-27T20:14:05.968Z,81.60
2022-11-27T20:16:35.494Z,81.60
2022-11-27T20:19:05.757Z,81.60
2022-11-27T20:21:35.471Z,81.50
2022-11-27T20:24:03.733Z,81.50
2022-11-27T20:26:30.916Z,81.50
2022-11-27T20:28:59.910Z,81.30
2022-11-27T20:31:31.510Z,81.30
2022-11-27T20:34:02.569Z,81.30
2022-11-27T20:36:39.000Z,81.20
2022-11-27T20:39:06.905Z,81.00
2022-11-27T20:41:34.331Z,80.90
2022-11-27T20:44:04.736Z,80.80
2022-11-27T20:46:33.323Z,80.60
2022-11-27T20:49:01.599Z,80.50
2022-11-27T20:51:33.458Z,80.40
2022-11-27T20:54:08.227Z,80.30
2022-11-27T20:56:35.597Z,80.20
2022-11-27T20:59:04.943Z,80.10
2022-11-27T21:01:34.932Z,80.00
2022-11-27T21:04:20.173Z,80.00
2022-11-27T21:06:47.750Z,80.10
2022-11-27T21:09:15.518Z,80.00
2022-11-27T21:11:44.442Z,80.00
2022-11-27T21:14:14.282Z,80.00
2022-11-27T21:16:48.396Z,80.80
2022-11-27T21:19:25.557Z,80.20
2022-11-27T21:21:55.995Z,80.20
2022-11-27T21:24:27.308Z,80.20
2022-11-27T21:26:55.754Z,80.20
2022-11-27T21:29:25.548Z,80.20
2022-11-27T21:31:54.174Z,80.20
2022-11-27T21:34:21.849Z,80.20
2022-11-27T21:36:49.698Z,80.10
2022-11-27T21:39:20.700Z,80.10
2022-11-27T21:41:51.368Z,80.00
2022-11-27T21:44:21.011Z,80.00
2022-11-27T21:46:49.110Z,80.00
2022-11-27T21:49:20.265Z,79.80
2022-11-27T21:51:52.472Z,79.70
2022-11-27T21:54:23.683Z,79.80
2022-11-27T21:56:52.893Z,79.70
2022-11-27T21:59:23.040Z,79.80
2022-11-27T22:01:56.956Z,79.70
2022-11-27T22:04:25.371Z,79.70
2022-11-27T22:06:53.097Z,79.80
2022-11-27T22:09:20.039Z,79.80
2022-11-27T22:11:47.397Z,79.70
2022-11-27T22:14:16.157Z,79.50
2022-11-27T22:16:46.723Z,79.50
2022-11-27T22:19:16.416Z,79.40
2022-11-27T22:21:44.450Z,79.30
2022-11-27T22:24:16.745Z,79.30
2022-11-27T22:26:45.514Z,79.20
2022-11-27T22:29:13.563Z,79.10
2022-11-27T22:31:40.801Z,79.00
2022-11-27T22:34:07.699Z,79.00
2022-11-27T22:36:35.719Z,79.00
2022-11-27T22:39:06.782Z,78.90
2022-11-27T22:41:37.104Z,78.90
2022-11-27T22:44:17.968Z,78.90
2022-11-27T22:46:45.520Z,78.90
2022-11-27T22:49:15.743Z,78.90
2022-11-27T22:51:44.185Z,78.90
2022-11-27T22:54:17.375Z,79.00
2022-11-27T22:56:46.060Z,79.10
2022-11-27T23:02:03.863Z,79.20
2022-11-27T23:04:31.806Z,79.30
2022-11-27T23:06:59.272Z,79.30
2022-11-27T23:09:26.749Z,79.40
2022-11-27T23:11:54.026Z,79.40
2022-11-27T23:14:20.932Z,79.50
2022-11-27T23:16:48.099Z,79.60
2022-11-27T23:19:15.528Z,79.60
2022-11-27T23:21:42.405Z,79.60
2022-11-27T23:24:15.208Z,79.60
2022-11-27T23:26:43.446Z,79.60
2022-11-27T23:29:10.388Z,79.50
2022-11-27T23:31:38.511Z,79.60
2022-11-27T23:34:13.661Z,79.50
2022-11-27T23:36:40.790Z,79.50
2022-11-27T23:39:12.158Z,79.50
2022-11-27T23:41:40.712Z,79.40
2022-11-27T23:44:07.905Z,79.30
2022-11-27T23:46:34.985Z,79.30
2022-11-27T23:49:02.011Z,79.30
2022-11-27T23:51:33.388Z,79.20
2022-11-27T23:54:01.440Z,79.20
2022-11-27T23:56:31.992Z,79.20
2022-11-27T23:59:00.486Z,79.10
